Time;durP1;ratioP1;P1;durP2;ratioP2;P2;SDS_P1;SDS_P2;PMS_P1;PMS_P2;Temp;Humidity;BMP_temperature;BMP_pressure;BME280_temperature;BME280_humidity;BME280_pressure;Samples;Min_cycle;Max_cycle;Signal;HPM_P1;HPM_P2
2023/12/10 00:00:07;;;;;;;29.00;5.97;;;8.70;99.90;;;;;;5073544;28;20191;-71
2023/12/10 00:02:33;;;;;;;34.35;5.60;;;8.70;99.90;;;;;;5073224;28;20040;-71
2023/12/10 00:04:58;;;;;;;31.25;5.57;;;8.60;99.90;;;;;;5073586;28;20578;-71
2023/12/10 00:07:24;;;;;;;29.65;5.68;;;8.60;99.90;;;;;;5072299;28;20037;-71
2023/12/10 00:09:50;;;;;;;32.25;6.30;;;8.60;99.90;;;;;;5071980;28;20044;-71
2023/12/10 00:12:16;;;;;;;33.67;5.75;;;8.60;99.90;;;;;;5073499;28;20033;-71
2023/12/10 00:14:41;;;;;;;28.67;5.38;;;8.60;99.90;;;;;;5071976;28;20089;-71
2023/12/10 00:17:07;;;;;;;38.60;7.35;;;8.60;99.90;;;;;;5073454;28;20036;-71
2023/12/10 00:19:33;;;;;;;32.60;6.85;;;8.60;99.90;;;;;;5071834;28;20090;-71
2023/12/10 00:21:59;;;;;;;32.00;6.07;;;8.60;99.90;;;;;;5073160;28;20037;-71
2023/12/10 00:24:25;;;;;;;29.05;5.57;;;8.60;99.90;;;;;;5071867;28;20032;-71
2023/12/10 00:26:51;;;;;;;29.55;4.82;;;8.50;99.90;;;;;;5071798;28;20119;-71
2023/12/10 00:29:16;;;;;;;28.75;5.70;;;8.60;99.90;;;;;;5071846;28;20078;-71
2023/12/10 00:31:43;;;;;;;29.10;5.38;;;8.60;99.90;;;;;;5071700;28;20042;-71
2023/12/10 00:34:09;;;;;;;30.63;5.38;;;8.60;99.90;;;;;;5071722;28;20047;-71
2023/12/10 00:36:35;;;;;;;30.23;5.45;;;8.60;99.90;;;;;;5073322;28;20037;-71
2023/12/10 00:39:02;;;;;;;36.10;5.63;;;8.60;99.90;;;;;;5073144;28;20076;-71
2023/12/10 00:41:27;;;;;;;34.13;5.47;;;8.60;99.90;;;;;;5071615;28;20409;-71
2023/12/10 00:43:53;;;;;;;38.28;6.72;;;8.60;99.90;;;;;;5072807;28;20507;-71
2023/12/10 00:46:18;;;;;;;36.53;6.72;;;8.60;99.90;;;;;;5071908;28;20048;-71
2023/12/10 00:48:44;;;;;;;26.77;4.82;;;8.70;99.90;;;;;;5073123;28;20397;-71
2023/12/10 00:51:23;;;;;;;22.90;4.60;;;8.70;99.90;;;;;;5071536;28;20051;-71
2023/12/10 00:53:49;;;;;;;33.72;4.93;;;8.70;99.90;;;;;;5072740;28;20036;-71
2023/12/10 00:56:15;;;;;;;25.73;5.13;;;8.70;99.90;;;;;;5075925;28;20051;-71
2023/12/10 00:58:41;;;;;;;20.25;4.00;;;8.80;99.90;;;;;;5076701;28;20493;-71
2023/12/10 01:01:07;;;;;;;24.20;4.65;;;8.80;99.90;;;;;;5075478;28;20123;-71
2023/12/10 01:03:34;;;;;;;25.73;4.55;;;8.70;99.90;;;;;;5075850;28;20082;-71
2023/12/10 01:06:01;;;;;;;23.48;4.10;;;8.70;99.90;;;;;;5076926;28;20051;-71
2023/12/10 01:08:27;;;;;;;24.73;4.30;;;8.60;99.90;;;;;;5076947;28;20037;-71
2023/12/10 01:10:52;;;;;;;23.92;3.70;;;8.50;99.90;;;;;;5075524;28;20381;-71
2023/12/10 01:13:18;;;;;;;23.35;3.85;;;8.50;99.90;;;;;;5076792;28;20036;-71
2023/12/10 01:15:43;;;;;;;21.48;4.28;;;8.40;99.90;;;;;;5075489;28;20094;-71
2023/12/10 01:18:10;;;;;;;24.80;4.50;;;8.30;99.90;;;;;;5076670;28;20500;-71
2023/12/10 01:20:37;;;;;;;27.67;4.80;;;8.30;99.90;;;;;;5076565;28;20041;-71
2023/12/10 01:23:04;;;;;;;28.65;4.80;;;8.20;99.90;;;;;;5076317;28;20044;-71
2023/12/10 01:25:30;;;;;;;26.67;5.20;;;8.20;99.90;;;;;;5075267;28;20041;-71
2023/12/10 01:27:55;;;;;;;23.15;4.30;;;8.20;99.90;;;;;;5074997;28;20485;-71
2023/12/10 01:30:23;;;;;;;25.25;4.35;;;8.10;99.90;;;;;;5076409;28;20094;-71
2023/12/10 01:32:51;;;;;;;25.45;4.65;;;8.10;99.90;;;;;;5076179;28;20090;-71
2023/12/10 01:35:18;;;;;;;29.75;4.18;;;8.00;99.90;;;;;;5076319;28;20131;-71
2023/12/10 01:37:43;;;;;;;23.02;4.15;;;8.00;99.90;;;;;;5075996;28;20107;-71
2023/12/10 01:40:10;;;;;;;27.50;4.60;;;8.00;99.90;;;;;;5076146;28;20045;-71
2023/12/10 01:42:35;;;;;;;23.75;4.68;;;7.90;99.90;;;;;;5074725;28;20040;-71
2023/12/10 01:45:04;;;;;;;24.88;4.90;;;7.90;99.90;;;;;;5074943;28;20039;-70
2023/12/10 01:47:34;;;;;;;27.65;4.93;;;7.90;99.90;;;;;;5074914;28;20052;-70
2023/12/10 01:50:02;;;;;;;27.65;5.00;;;7.90;99.90;;;;;;5076338;28;20065;-70
2023/12/10 01:52:28;;;;;;;27.38;4.85;;;7.90;99.90;;;;;;5074575;28;20045;-70
2023/12/10 01:54:54;;;;;;;28.95;5.32;;;7.90;99.90;;;;;;5076034;28;20048;-70
2023/12/10 01:57:20;;;;;;;27.20;4.90;;;7.90;99.90;;;;;;5075943;28;20040;-70
2023/12/10 01:59:46;;;;;;;31.95;5.15;;;7.80;99.90;;;;;;5074326;28;20083;-70
2023/12/10 02:02:12;;;;;;;37.22;6.00;;;7.80;99.90;;;;;;5074386;28;20072;-70
2023/12/10 02:04:40;;;;;;;31.27;5.35;;;7.80;99.90;;;;;;5057629;28;20048;-70
2023/12/10 02:07:05;;;;;;;26.02;5.18;;;7.80;99.90;;;;;;5073586;28;20040;-70
2023/12/10 02:09:31;;;;;;;33.40;5.65;;;7.80;99.90;;;;;;5074122;28;20048;-70
2023/12/10 02:11:57;;;;;;;29.15;4.60;;;7.80;99.90;;;;;;5074194;28;20040;-70
2023/12/10 02:14:22;;;;;;;32.20;5.18;;;7.80;99.90;;;;;;5074138;28;20044;-70
2023/12/10 02:16:48;;;;;;;29.73;5.53;;;7.80;99.90;;;;;;5057439;28;20037;-70
2023/12/10 02:19:14;;;;;;;31.08;5.13;;;7.80;99.90;;;;;;5075232;28;20049;-70
2023/12/10 02:21:44;;;;;;;32.13;5.65;;;7.80;99.90;;;;;;5075273;28;20040;-70
2023/12/10 02:24:14;;;;;;;31.35;5.88;;;7.80;99.90;;;;;;5075547;28;20063;-70
2023/12/10 02:26:40;;;;;;;30.17;5.07;;;7.80;99.90;;;;;;5075185;28;20047;-70
2023/12/10 02:29:06;;;;;;;37.83;5.32;;;7.80;99.90;;;;;;5075083;28;20032;-70
2023/12/10 02:31:32;;;;;;;32.58;5.68;;;7.80;99.90;;;;;;5073782;28;20076;-70
2023/12/10 02:33:57;;;;;;;39.33;6.78;;;7.80;99.90;;;;;;5073850;28;20079;-70
2023/12/10 02:36:23;;;;;;;29.70;4.68;;;7.80;99.90;;;;;;5073764;28;20044;-70
2023/12/10 02:38:50;;;;;;;33.47;4.90;;;7.80;99.90;;;;;;5073821;28;20076;-70
2023/12/10 02:41:16;;;;;;;33.90;5.63;;;7.80;99.90;;;;;;5073795;28;20124;-70
2023/12/10 02:43:41;;;;;;;33.78;5.50;;;7.80;99.90;;;;;;5075087;28;20116;-70
2023/12/10 02:46:07;;;;;;;33.58;5.53;;;7.80;99.90;;;;;;5073512;28;20111;-70
2023/12/10 02:48:33;;;;;;;33.75;5.50;;;7.80;99.90;;;;;;5075022;28;20040;-70
2023/12/10 02:50:58;;;;;;;24.40;5.18;;;7.80;99.90;;;;;;5073417;28;20115;-70
2023/12/10 02:53:24;;;;;;;29.23;5.72;;;7.80;99.90;;;;;;5057039;28;20045;-70
2023/12/10 02:55:49;;;;;;;33.00;5.07;;;7.70;99.90;;;;;;5074869;28;20563;-70
2023/12/10 02:58:15;;;;;;;30.13;5.47;;;7.80;99.90;;;;;;5073199;28;20051;-70
2023/12/10 03:00:41;;;;;;;36.10;5.55;;;7.80;99.90;;;;;;5074695;28;20032;-70
2023/12/10 03:03:07;;;;;;;34.00;5.35;;;7.80;99.90;;;;;;5074448;28;20515;-70
2023/12/10 03:05:32;;;;;;;30.15;5.32;;;7.80;99.90;;;;;;5074632;28;20040;-70
2023/12/10 03:07:58;;;;;;;30.63;4.47;;;7.80;99.90;;;;;;5074304;28;20039;-70
2023/12/10 03:10:23;;;;;;;30.15;4.90;;;7.80;99.90;;;;;;5074136;28;20052;-70
2023/12/10 03:12:49;;;;;;;32.92;5.60;;;7.80;99.90;;;;;;5073267;28;20044;-70
2023/12/10 03:15:15;;;;;;;32.90;5.55;;;7.80;99.90;;;;;;5074129;28;20443;-70
2023/12/10 03:17:40;;;;;;;32.55;5.78;;;7.80;99.90;;;;;;5071901;28;20105;-70
2023/12/10 03:20:07;;;;;;;28.95;5.05;;;7.80;99.90;;;;;;5072698;28;20048;-70
2023/12/10 03:22:32;;;;;;;29.85;5.10;;;7.80;99.90;;;;;;5072633;28;20082;-70
2023/12/10 03:24:58;;;;;;;29.15;4.90;;;7.80;99.90;;;;;;5056087;28;20040;-70
2023/12/10 03:27:24;;;;;;;28.38;4.88;;;7.80;99.90;;;;;;5074240;28;20112;-70
2023/12/10 03:29:50;;;;;;;31.45;4.38;;;7.80;99.90;;;;;;5074198;28;20075;-70
2023/12/10 03:32:16;;;;;;;30.77;4.50;;;7.70;99.90;;;;;;5074167;28;20499;-70
2023/12/10 03:34:41;;;;;;;27.20;4.28;;;7.80;99.90;;;;;;5072823;28;20068;-70
2023/12/10 03:37:08;;;;;;;24.13;4.53;;;7.70;99.90;;;;;;5073741;28;20037;-70
2023/12/10 03:39:33;;;;;;;24.77;3.78;;;7.70;99.90;;;;;;5072384;28;20390;-70
2023/12/10 03:41:59;;;;;;;27.95;4.07;;;7.70;99.90;;;;;;5073995;28;20043;-70
2023/12/10 03:44:25;;;;;;;28.92;5.20;;;7.70;99.90;;;;;;5073559;28;20032;-70
2023/12/10 03:46:50;;;;;;;23.00;3.70;;;7.70;99.90;;;;;;5072601;28;20033;-70
2023/12/10 03:49:16;;;;;;;21.15;3.38;;;7.60;99.90;;;;;;5072644;28;20466;-70
2023/12/10 03:51:41;;;;;;;29.00;3.92;;;7.60;99.90;;;;;;5072226;28;20047;-70
2023/12/10 03:54:07;;;;;;;24.20;4.25;;;7.60;99.90;;;;;;5072258;28;20032;-70
2023/12/10 03:56:32;;;;;;;20.17;3.35;;;7.60;99.90;;;;;;5072234;28;20137;-70
2023/12/10 03:58:58;;;;;;;19.55;3.30;;;7.60;99.90;;;;;;5072330;28;20040;-70
2023/12/10 04:01:24;;;;;;;16.85;2.88;;;7.60;99.90;;;;;;5073582;28;20409;-70
2023/12/10 04:03:49;;;;;;;19.80;3.17;;;7.60;99.90;;;;;;5074127;28;20040;-70
2023/12/10 04:06:15;;;;;;;21.27;2.92;;;7.70;99.90;;;;;;5073939;28;20108;-70
2023/12/10 04:08:41;;;;;;;15.52;3.13;;;7.60;99.90;;;;;;5072048;28;20041;-70
2023/12/10 04:11:06;;;;;;;16.65;2.97;;;7.70;99.90;;;;;;5071967;28;20032;-70
2023/12/10 04:13:32;;;;;;;15.10;2.53;;;7.70;99.90;;;;;;5073485;28;20044;-70
2023/12/10 04:16:00;;;;;;;15.40;2.50;;;7.70;99.90;;;;;;5072002;28;20045;-70
2023/12/10 04:18:27;;;;;;;12.27;2.30;;;7.70;99.90;;;;;;5073067;28;20480;-70
2023/12/10 04:20:52;;;;;;;15.55;3.33;;;7.70;99.90;;;;;;5071934;28;20509;-70
2023/12/10 04:23:18;;;;;;;19.38;2.67;;;7.80;99.90;;;;;;5072084;28;20043;-70
2023/12/10 04:25:44;;;;;;;18.60;2.47;;;7.80;99.90;;;;;;5073052;28;20489;-70
2023/12/10 04:28:09;;;;;;;17.85;2.92;;;7.80;99.90;;;;;;5071865;28;20581;-70
2023/12/10 04:30:35;;;;;;;16.50;3.13;;;7.80;99.90;;;;;;5073638;28;20470;-70
2023/12/10 04:33:00;;;;;;;19.70;3.45;;;7.90;99.90;;;;;;5072996;28;20085;-70
2023/12/10 04:35:26;;;;;;;16.88;3.00;;;7.90;99.90;;;;;;5071806;28;20043;-70
2023/12/10 04:37:51;;;;;;;18.33;2.88;;;7.90;99.90;;;;;;5071783;28;20044;-70
2023/12/10 04:40:17;;;;;;;15.02;2.83;;;7.90;99.90;;;;;;5071671;28;20041;-70
2023/12/10 04:42:43;;;;;;;20.85;3.70;;;7.90;99.90;;;;;;5071766;28;20040;-70
2023/12/10 04:45:09;;;;;;;16.92;3.05;;;7.90;99.90;;;;;;5071698;28;20046;-70
2023/12/10 04:47:36;;;;;;;17.50;2.83;;;8.00;99.90;;;;;;5071664;28;20047;-70
2023/12/10 04:50:02;;;;;;;16.70;3.15;;;8.00;99.90;;;;;;5073051;28;20115;-70
2023/12/10 04:52:29;;;;;;;12.07;3.13;;;8.00;99.90;;;;;;5071638;28;20090;-70
2023/12/10 04:54:57;;;;;;;15.50;3.10;;;8.00;99.90;;;;;;5071666;28;20040;-70
2023/12/10 04:57:22;;;;;;;17.48;3.10;;;8.10;99.90;;;;;;5071950;28;20047;-70
2023/12/10 04:59:48;;;;;;;18.40;2.95;;;8.00;99.90;;;;;;5072940;28;20040;-70
2023/12/10 05:02:13;;;;;;;18.38;2.92;;;8.00;99.90;;;;;;5073025;28;20090;-70
2023/12/10 05:04:39;;;;;;;16.50;3.53;;;8.00;99.90;;;;;;5071534;28;20047;-70
2023/12/10 05:07:05;;;;;;;15.23;2.80;;;8.00;99.90;;;;;;5072762;28;20032;-70
2023/12/10 05:09:32;;;;;;;16.63;2.90;;;8.00;99.90;;;;;;5072912;28;20044;-70
2023/12/10 05:11:57;;;;;;;24.15;3.40;;;8.00;99.90;;;;;;5071695;28;20067;-70
2023/12/10 05:14:23;;;;;;;12.98;2.58;;;8.10;99.90;;;;;;5072586;28;20493;-70
2023/12/10 05:16:48;;;;;;;20.10;2.83;;;8.00;99.90;;;;;;5072996;28;20055;-70
2023/12/10 05:19:14;;;;;;;19.58;2.65;;;8.10;99.90;;;;;;5072792;28;20115;-70
2023/12/10 05:21:40;;;;;;;18.90;3.05;;;8.10;99.90;;;;;;5072644;28;20037;-70
2023/12/10 05:24:05;;;;;;;14.10;2.72;;;8.10;99.90;;;;;;5071635;28;20033;-71
2023/12/10 05:26:31;;;;;;;17.13;2.90;;;8.10;99.90;;;;;;5072777;28;20504;-70
2023/12/10 05:28:57;;;;;;;18.90;3.00;;;8.10;99.90;;;;;;5071269;28;20040;-70
2023/12/10 05:31:22;;;;;;;15.25;2.53;;;8.10;99.90;;;;;;5072680;28;20039;-70
2023/12/10 05:33:48;;;;;;;15.02;2.25;;;8.20;99.90;;;;;;5071264;28;20041;-70
2023/12/10 05:36:14;;;;;;;13.82;2.13;;;8.20;99.90;;;;;;5071172;28;20048;-70
2023/12/10 05:38:40;;;;;;;12.20;1.98;;;8.20;99.90;;;;;;5072637;28;20063;-70
2023/12/10 05:41:06;;;;;;;16.85;2.17;;;8.20;99.90;;;;;;5073795;28;20493;-70
2023/12/10 05:43:31;;;;;;;14.93;2.00;;;8.30;99.90;;;;;;5074718;28;20072;-70
2023/12/10 05:45:57;;;;;;;11.40;1.98;;;8.30;99.90;;;;;;5074960;28;20070;-70
2023/12/10 05:48:22;;;;;;;10.77;1.60;;;8.30;99.90;;;;;;5075904;28;20047;-70
2023/12/10 05:50:48;;;;;;;15.32;2.35;;;8.30;99.90;;;;;;5074589;28;20040;-70
2023/12/10 05:53:14;;;;;;;16.33;2.80;;;8.30;99.90;;;;;;5074624;28;20047;-70
2023/12/10 05:55:39;;;;;;;10.50;2.17;;;8.40;99.90;;;;;;5074503;28;20048;-70
2023/12/10 05:58:05;;;;;;;20.23;3.15;;;8.30;99.90;;;;;;5074462;28;20032;-70
2023/12/10 06:00:31;;;;;;;18.95;2.60;;;8.40;99.90;;;;;;5074513;28;20052;-70
2023/12/10 06:02:56;;;;;;;15.27;3.17;;;8.40;99.90;;;;;;5074376;28;20085;-70
2023/12/10 06:05:22;;;;;;;17.95;3.03;;;8.30;99.90;;;;;;5075835;28;20036;-70
2023/12/10 06:07:47;;;;;;;16.80;2.95;;;8.40;99.90;;;;;;5074318;28;20456;-70
2023/12/10 06:10:13;;;;;;;16.10;2.53;;;8.40;99.90;;;;;;5074176;28;20161;-70
2023/12/10 06:12:39;;;;;;;20.30;2.88;;;8.40;99.90;;;;;;5074463;28;20137;-70
2023/12/10 06:15:05;;;;;;;16.23;3.67;;;8.40;99.90;;;;;;5074207;28;20485;-70
2023/12/10 06:17:30;;;;;;;21.75;3.17;;;8.40;99.90;;;;;;5074098;28;20147;-70
2023/12/10 06:19:56;;;;;;;20.95;3.45;;;8.40;99.90;;;;;;5074050;28;20123;-70
2023/12/10 06:22:22;;;;;;;26.23;3.83;;;8.50;99.90;;;;;;5073826;28;20048;-70
2023/12/10 06:24:49;;;;;;;25.90;3.90;;;8.50;99.90;;;;;;5074020;28;20036;-70
2023/12/10 06:27:15;;;;;;;25.50;4.40;;;8.50;99.90;;;;;;5073934;28;20045;-70
2023/12/10 06:29:41;;;;;;;25.20;4.50;;;8.50;99.90;;;;;;5075334;28;20093;-70
2023/12/10 06:32:06;;;;;;;26.42;4.05;;;8.40;99.90;;;;;;5073872;28;20041;-70
2023/12/10 06:34:32;;;;;;;28.63;4.82;;;8.50;99.90;;;;;;5075329;28;20033;-70
2023/12/10 06:36:57;;;;;;;32.17;4.60;;;8.50;99.90;;;;;;5057118;28;20488;-70
2023/12/10 06:39:23;;;;;;;21.60;4.53;;;8.50;99.90;;;;;;5073840;28;20048;-70
2023/12/10 06:41:49;;;;;;;23.30;4.47;;;8.50;99.90;;;;;;5075917;28;20090;-70
2023/12/10 06:44:21;;;;;;;26.10;4.88;;;8.50;99.90;;;;;;5075151;28;20055;-70
2023/12/10 06:46:47;;;;;;;20.67;4.40;;;8.50;99.90;;;;;;5074922;28;20080;-70
2023/12/10 06:49:13;;;;;;;24.63;4.43;;;8.50;99.90;;;;;;5074708;28;20390;-70
2023/12/10 06:51:39;;;;;;;25.35;4.43;;;8.50;99.90;;;;;;5073469;28;20040;-70
2023/12/10 06:54:04;;;;;;;27.58;4.15;;;8.50;99.90;;;;;;5073428;28;20493;-70
2023/12/10 06:56:30;;;;;;;24.88;3.88;;;8.50;99.90;;;;;;5074869;28;20044;-70
2023/12/10 06:58:55;;;;;;;27.15;4.20;;;8.50;99.90;;;;;;5074738;28;20036;-70
2023/12/10 07:01:21;;;;;;;31.30;5.30;;;8.40;99.90;;;;;;5074763;28;20067;-70
2023/12/10 07:03:47;;;;;;;34.58;5.47;;;8.50;99.90;;;;;;5073291;28;20504;-70
2023/12/10 07:06:12;;;;;;;29.70;5.32;;;8.40;99.90;;;;;;5073182;28;20056;-70
2023/12/10 07:08:38;;;;;;;31.80;5.10;;;8.40;99.90;;;;;;5073134;28;20055;-70
2023/12/10 07:11:05;;;;;;;31.10;5.22;;;8.40;99.90;;;;;;5074502;28;20037;-70
2023/12/10 07:13:30;;;;;;;29.02;4.50;;;8.50;99.90;;;;;;5073061;28;20064;-70
2023/12/10 07:15:56;;;;;;;27.55;4.78;;;8.50;99.90;;;;;;5074488;28;20040;-70
2023/12/10 07:18:21;;;;;;;33.45;4.88;;;8.50;99.90;;;;;;5074352;28;20090;-70
2023/12/10 07:20:47;;;;;;;31.48;5.20;;;8.50;99.90;;;;;;5072780;28;20036;-70
2023/12/10 07:23:13;;;;;;;33.55;5.35;;;8.50;99.90;;;;;;5072730;28;20527;-70
2023/12/10 07:25:39;;;;;;;32.70;4.65;;;8.50;99.90;;;;;;5072778;28;20072;-70
2023/12/10 07:28:04;;;;;;;31.55;4.68;;;8.50;99.90;;;;;;5072727;28;20052;-70
2023/12/10 07:30:30;;;;;;;24.63;4.70;;;8.50;99.90;;;;;;5072648;28;20083;-70
2023/12/10 07:32:56;;;;;;;17.10;3.15;;;8.40;99.90;;;;;;5072627;28;20090;-70
2023/12/10 07:35:22;;;;;;;23.58;3.75;;;8.40;99.90;;;;;;5073798;28;20420;-70
2023/12/10 07:37:48;;;;;;;17.35;2.97;;;8.40;99.90;;;;;;5074062;28;20116;-70
2023/12/10 07:40:13;;;;;;;18.60;3.40;;;8.40;99.90;;;;;;5072422;28;20040;-70
2023/12/10 07:42:39;;;;;;;21.50;4.15;;;8.40;99.90;;;;;;5074059;28;20413;-70
2023/12/10 07:45:05;;;;;;;20.23;3.83;;;8.40;99.90;;;;;;5072413;28;20455;-70
2023/12/10 07:47:33;;;;;;;23.83;4.25;;;8.40;99.90;;;;;;5073941;28;20123;-70
2023/12/10 07:49:59;;;;;;;22.05;3.90;;;8.30;99.90;;;;;;5073448;28;20072;-70
2023/12/10 07:52:24;;;;;;;23.02;3.92;;;8.30;99.90;;;;;;5073851;28;20032;-70
2023/12/10 07:54:50;;;;;;;25.90;4.10;;;8.30;99.90;;;;;;5072345;28;20501;-70
2023/12/10 07:57:16;;;;;;;24.48;3.45;;;8.30;99.90;;;;;;5073420;28;20032;-70
2023/12/10 07:59:41;;;;;;;20.88;3.25;;;8.40;99.90;;;;;;5072049;28;20044;-70
2023/12/10 08:02:07;;;;;;;21.55;3.67;;;8.30;99.90;;;;;;5073693;28;20041;-70
2023/12/10 08:04:32;;;;;;;21.75;3.80;;;8.30;99.90;;;;;;5071814;28;20032;-70
2023/12/10 08:06:58;;;;;;;16.02;3.08;;;8.30;99.90;;;;;;5073575;28;20036;-70
2023/12/10 08:09:24;;;;;;;24.98;3.60;;;8.30;99.90;;;;;;5072354;28;20083;-70
2023/12/10 08:11:49;;;;;;;24.00;3.20;;;8.30;99.90;;;;;;5072034;28;20386;-70
2023/12/10 08:14:15;;;;;;;21.90;3.72;;;8.30;99.90;;;;;;5072279;28;20048;-70
2023/12/10 08:16:40;;;;;;;19.20;3.15;;;8.30;99.90;;;;;;5072267;28;20044;-70
2023/12/10 08:19:06;;;;;;;24.83;3.72;;;8.30;99.90;;;;;;5073390;28;20401;-70
2023/12/10 08:21:32;;;;;;;23.05;3.50;;;8.30;99.90;;;;;;5071772;28;20511;-70
2023/12/10 08:23:57;;;;;;;29.48;3.70;;;8.30;99.90;;;;;;5071946;28;20036;-70
2023/12/10 08:26:23;;;;;;;21.30;3.67;;;8.30;99.90;;;;;;5072170;28;20079;-70
2023/12/10 08:28:48;;;;;;;23.40;3.35;;;8.30;99.90;;;;;;5073301;28;20036;-71
2023/12/10 08:31:14;;;;;;;18.98;2.75;;;8.30;99.90;;;;;;5073326;28;20044;-71
2023/12/10 08:33:40;;;;;;;21.30;3.88;;;8.30;99.90;;;;;;5072077;28;20048;-70
2023/12/10 08:36:06;;;;;;;20.08;2.72;;;8.30;99.90;;;;;;5055343;28;20040;-70
2023/12/10 08:38:31;;;;;;;21.77;4.15;;;8.40;99.90;;;;;;5071989;28;20048;-70
2023/12/10 08:40:57;;;;;;;20.00;3.38;;;8.30;99.90;;;;;;5072174;28;20041;-70
2023/12/10 08:43:22;;;;;;;23.00;3.50;;;8.30;99.90;;;;;;5073592;28;20481;-70
2023/12/10 08:45:48;;;;;;;22.88;3.28;;;8.30;99.90;;;;;;5073950;28;20040;-70
2023/12/10 08:48:14;;;;;;;22.15;3.53;;;8.30;99.90;;;;;;5071794;28;20041;-70
2023/12/10 08:50:39;;;;;;;22.48;3.35;;;8.30;99.90;;;;;;5071911;28;20068;-70
2023/12/10 08:53:05;;;;;;;20.52;3.28;;;8.30;99.90;;;;;;5073147;28;20481;-70
2023/12/10 08:55:31;;;;;;;19.63;2.97;;;8.30;99.90;;;;;;5073154;28;20119;-70
2023/12/10 08:57:56;;;;;;;25.63;3.78;;;8.40;99.90;;;;;;5073114;28;20402;-70
2023/12/10 09:00:22;;;;;;;23.92;3.60;;;8.40;99.90;;;;;;5071421;28;20090;-70
2023/12/10 09:02:48;;;;;;;22.70;3.50;;;8.40;99.90;;;;;;5071559;28;20115;-70
2023/12/10 09:05:13;;;;;;;25.27;3.40;;;8.30;99.90;;;;;;5071509;28;20040;-73
2023/12/10 09:07:39;;;;;;;22.98;3.15;;;8.40;99.90;;;;;;5071449;28;20062;-72
2023/12/10 09:10:05;;;;;;;23.48;3.60;;;8.40;99.90;;;;;;5072926;28;20041;-72
2023/12/10 09:12:30;;;;;;;18.30;3.60;;;8.30;99.90;;;;;;5072981;28;20037;-72
2023/12/10 09:14:56;;;;;;;27.45;4.15;;;8.40;99.90;;;;;;5072700;28;20488;-72
2023/12/10 09:17:21;;;;;;;24.70;4.18;;;8.40;99.90;;;;;;5075536;28;20040;-72
2023/12/10 09:19:48;;;;;;;30.35;4.13;;;8.40;99.90;;;;;;5076533;28;20120;-72
2023/12/10 09:22:13;;;;;;;25.70;4.18;;;8.40;99.90;;;;;;5076394;28;20051;-72
2023/12/10 09:24:39;;;;;;;31.27;4.88;;;8.40;99.90;;;;;;5075363;28;20033;-72
2023/12/10 09:27:05;;;;;;;27.70;4.05;;;8.40;99.90;;;;;;5075047;28;20048;-72
2023/12/10 09:29:38;;;;;;;22.58;3.85;;;8.40;99.90;;;;;;5075195;28;20044;-72
2023/12/10 09:32:05;;;;;;;27.17;3.90;;;8.50;99.90;;;;;;5076395;28;20071;-72
2023/12/10 09:34:31;;;;;;;23.45;3.58;;;8.50;99.90;;;;;;5058201;28;20084;-73
2023/12/10 09:36:57;;;;;;;19.75;3.15;;;8.50;99.90;;;;;;5074818;28;20079;-74
2023/12/10 09:39:22;;;;;;;28.45;4.80;;;8.50;99.90;;;;;;5076316;28;20087;-75
2023/12/10 09:41:49;;;;;;;27.98;3.97;;;8.50;99.90;;;;;;5074759;28;20123;-74
2023/12/10 09:44:14;;;;;;;33.45;5.07;;;8.50;99.90;;;;;;5075905;28;20471;-74
2023/12/10 09:46:41;;;;;;;40.03;5.20;;;8.50;99.90;;;;;;5074708;28;20115;-76
2023/12/10 09:49:06;;;;;;;31.20;6.78;;;8.50;99.90;;;;;;5074754;28;20409;-75
2023/12/10 09:51:32;;;;;;;39.47;5.63;;;8.40;99.90;;;;;;5074827;28;20040;-75
2023/12/10 09:53:57;;;;;;;37.83;5.88;;;8.40;99.90;;;;;;5074584;28;20554;-75
2023/12/10 09:56:23;;;;;;;35.28;5.75;;;8.50;99.90;;;;;;5076120;28;20111;-75
2023/12/10 09:58:49;;;;;;;36.85;6.82;;;8.50;99.90;;;;;;5074414;28;20037;-75
2023/12/10 10:01:14;;;;;;;40.00;6.22;;;8.40;99.90;;;;;;5074368;28;20047;-75
2023/12/10 10:03:41;;;;;;;41.85;6.57;;;8.50;99.90;;;;;;5074443;28;20066;-76
2023/12/10 10:06:07;;;;;;;42.92;6.47;;;8.50;99.90;;;;;;5075832;28;20115;-75
2023/12/10 10:08:32;;;;;;;45.50;7.80;;;8.50;99.90;;;;;;5074308;28;20115;-75
2023/12/10 10:10:58;;;;;;;44.13;7.05;;;8.50;99.90;;;;;;5074197;28;20182;-75
2023/12/10 10:13:24;;;;;;;35.97;6.93;;;8.50;99.90;;;;;;5074214;28;20044;-75
2023/12/10 10:15:49;;;;;;;39.65;7.25;;;8.50;99.90;;;;;;5074474;28;20037;-75
2023/12/10 10:18:15;;;;;;;37.47;6.53;;;8.50;99.90;;;;;;5074411;28;20428;-75
2023/12/10 10:20:41;;;;;;;41.75;7.45;;;8.50;99.90;;;;;;5057304;28;20413;-75
2023/12/10 10:23:08;;;;;;;39.28;5.47;;;8.40;99.90;;;;;;5075252;28;20082;-75
2023/12/10 10:25:34;;;;;;;45.42;6.72;;;8.50;99.90;;;;;;5074393;28;20033;-75
2023/12/10 10:28:00;;;;;;;42.58;6.50;;;8.50;99.90;;;;;;5073687;28;20037;-75
2023/12/10 10:30:25;;;;;;;45.03;6.55;;;8.50;99.90;;;;;;5075388;28;20381;-75
2023/12/10 10:32:54;;;;;;;38.28;7.20;;;8.50;99.90;;;;;;5073878;28;20076;-75
2023/12/10 10:35:20;;;;;;;38.65;6.68;;;8.60;99.90;;;;;;5073807;28;20077;-75
2023/12/10 10:37:47;;;;;;;38.22;6.50;;;8.60;99.90;;;;;;5074050;28;20119;-75
2023/12/10 10:40:13;;;;;;;43.95;6.75;;;8.60;99.90;;;;;;5073702;28;20123;-75
2023/12/10 10:42:39;;;;;;;41.97;6.03;;;8.60;99.90;;;;;;5075190;28;20072;-75
2023/12/10 10:45:05;;;;;;;37.95;6.93;;;8.60;99.90;;;;;;5057181;28;20036;-75
2023/12/10 10:47:32;;;;;;;34.40;5.35;;;8.60;99.90;;;;;;5073767;28;20033;-75
2023/12/10 10:50:00;;;;;;;40.17;6.80;;;8.60;99.90;;;;;;5073433;28;20461;-75
2023/12/10 10:52:28;;;;;;;33.90;5.78;;;8.60;99.90;;;;;;5073495;28;20047;-75
2023/12/10 10:54:55;;;;;;;43.88;5.88;;;8.70;99.90;;;;;;5073656;28;20086;-75
2023/12/10 10:57:34;;;;;;;37.03;6.18;;;8.70;99.90;;;;;;5073363;28;20161;-75
2023/12/10 11:00:00;;;;;;;38.45;6.28;;;8.70;99.90;;;;;;5073200;28;20044;-75
2023/12/10 11:02:25;;;;;;;35.42;6.63;;;8.70;99.90;;;;;;5056650;28;20043;-75
2023/12/10 11:04:51;;;;;;;38.72;6.28;;;8.70;99.90;;;;;;5074393;28;20045;-75
2023/12/10 11:07:19;;;;;;;40.40;6.68;;;8.70;99.90;;;;;;5073382;28;20497;-75
2023/12/10 11:09:59;;;;;;;37.03;5.80;;;8.70;99.90;;;;;;5073350;28;20051;-75
2023/12/10 11:12:40;;;;;;;35.00;5.68;;;8.80;99.90;;;;;;5074606;28;20040;-75
2023/12/10 11:15:27;;;;;;;36.00;6.03;;;8.80;99.90;;;;;;5074488;28;20045;-74
2023/12/10 11:17:57;;;;;;;32.97;6.18;;;8.70;99.90;;;;;;5074545;28;20047;-75
2023/12/10 11:20:30;;;;;;;32.67;6.28;;;8.80;99.90;;;;;;5072817;28;20078;-70
2023/12/10 11:22:55;;;;;;;33.65;6.32;;;8.80;99.90;;;;;;5056541;28;20067;-70
2023/12/10 11:25:21;;;;;;;38.28;6.72;;;8.80;99.90;;;;;;5073992;28;20505;-70
2023/12/10 11:27:47;;;;;;;25.27;4.80;;;8.80;99.90;;;;;;5074255;28;20037;-70
2023/12/10 11:30:13;;;;;;;35.70;5.88;;;8.80;99.90;;;;;;5072631;28;20041;-70
2023/12/10 11:32:38;;;;;;;31.38;5.55;;;8.90;99.90;;;;;;5072681;28;20044;-70
2023/12/10 11:35:04;;;;;;;33.10;4.72;;;9.20;99.90;;;;;;5074100;28;20030;-70
2023/12/10 11:37:30;;;;;;;41.35;6.53;;;9.40;99.90;;;;;;5055815;28;20378;-70
2023/12/10 11:39:56;;;;;;;27.80;5.15;;;9.50;99.90;;;;;;5071625;28;20051;-70
2023/12/10 11:42:21;;;;;;;30.60;5.35;;;9.40;99.90;;;;;;5074016;28;20032;-70
2023/12/10 11:44:47;;;;;;;33.97;5.90;;;9.40;99.90;;;;;;5072439;28;20090;-70
2023/12/10 11:47:12;;;;;;;31.15;5.13;;;9.30;99.90;;;;;;5072699;28;20040;-70
2023/12/10 11:49:38;;;;;;;29.48;4.93;;;9.30;99.90;;;;;;5072332;28;20488;-74
2023/12/10 11:52:04;;;;;;;24.48;4.63;;;9.20;99.90;;;;;;5073834;28;20051;-73
2023/12/10 11:54:30;;;;;;;25.73;4.50;;;9.20;99.90;;;;;;5072291;28;20120;-73
2023/12/10 11:56:55;;;;;;;25.60;4.53;;;9.10;99.90;;;;;;5072207;28;20040;-73
2023/12/10 11:59:21;;;;;;;25.67;4.93;;;9.10;99.90;;;;;;5073655;28;20045;-73
2023/12/10 12:01:48;;;;;;;26.23;4.47;;;9.10;99.90;;;;;;5072125;28;20039;-73
2023/12/10 12:04:14;;;;;;;25.17;4.93;;;9.10;99.90;;;;;;5072207;28;20528;-73
2023/12/10 12:06:41;;;;;;;29.95;5.30;;;9.00;99.90;;;;;;5072498;28;20044;-73
2023/12/10 12:09:08;;;;;;;25.23;5.28;;;9.00;99.90;;;;;;5073659;28;20045;-73
2023/12/10 12:11:34;;;;;;;30.42;4.68;;;9.00;99.90;;;;;;5072182;28;20079;-73
2023/12/10 12:14:02;;;;;;;25.77;4.90;;;9.00;99.90;;;;;;5072035;28;20078;-73
2023/12/10 12:16:27;;;;;;;29.45;4.93;;;9.00;99.90;;;;;;5072249;28;20059;-73
2023/12/10 12:18:53;;;;;;;33.83;5.13;;;9.00;99.90;;;;;;5071880;28;20501;-73
2023/12/10 12:21:18;;;;;;;30.30;5.07;;;8.90;99.90;;;;;;5071770;28;20037;-73
2023/12/10 12:23:44;;;;;;;31.55;5.35;;;8.90;99.90;;;;;;5071819;28;20089;-73
2023/12/10 12:26:10;;;;;;;25.70;4.60;;;8.90;99.90;;;;;;5073447;28;20043;-73
2023/12/10 12:28:35;;;;;;;30.35;5.47;;;9.00;99.90;;;;;;5071864;28;20538;-73
2023/12/10 12:31:01;;;;;;;34.15;5.75;;;9.00;99.90;;;;;;5074016;28;20051;-73
2023/12/10 12:33:26;;;;;;;28.80;3.97;;;9.00;99.90;;;;;;5072075;28;20036;-72
2023/12/10 12:35:52;;;;;;;35.38;5.13;;;9.00;99.90;;;;;;5071775;28;20524;-72
2023/12/10 12:38:17;;;;;;;30.60;4.75;;;9.00;99.90;;;;;;5073249;28;20039;-72
2023/12/10 12:40:43;;;;;;;26.85;5.25;;;9.00;99.90;;;;;;5073138;28;20072;-72